Terminal Aerodrome Forecast
Issued by NWS

Home | Current Version | Previous Version | Graphics & Text | Print | Product List | Glossary Off
Versions: 1 2 3 4 5 6 7 8 9 10 11 12 13 14

000
FTUS42 KMHX 311000 AAB
TAFISO
TAF AMD
KISO 311019Z 3110/0106 00000KT P6SM SCT250
     FM311700 07005KT P6SM SCT040 BKN250
     FM010100 14004KT P6SM SCT250
      AMD LTD TO CLD VIS AND WIND=

USA.gov is the U.S. government's official web portal to all federal, state and local government web resources and services.